Time;durP1;ratioP1;P1;durP2;ratioP2;P2;SDS_P1;SDS_P2;PMS_P1;PMS_P2;Temp;Humidity;BMP_temperature;BMP_pressure;BME280_temperature;BME280_humidity;BME280_pressure;Samples;Min_cycle;Max_cycle;Signal;HPM_P1;HPM_P2
2022/05/01 00:01:48;;;;;;;5.80;3.73;;;;;;;11.29;72.80;95186.22;5034576;28;20189;-87
2022/05/01 00:04:14;;;;;;;5.47;3.93;;;;;;;11.35;72.61;95197.75;5035254;28;20232;-86
2022/05/01 00:06:39;;;;;;;3.50;3.20;;;;;;;11.32;72.36;95200.81;5052566;28;20195;-86
2022/05/01 00:09:06;;;;;;;5.47;3.77;;;;;;;11.45;72.97;95229.75;5052336;28;20167;-86
2022/05/01 00:11:31;;;;;;;5.47;4.07;;;;;;;11.48;73.06;95231.19;5052196;28;20179;-87
2022/05/01 00:13:57;;;;;;;12.73;5.03;;;;;;;11.45;73.33;95227.13;5051806;28;20183;-85
2022/05/01 00:16:24;;;;;;;5.17;3.90;;;;;;;11.47;73.11;95219.81;5052020;28;20289;-86
2022/05/01 00:18:50;;;;;;;6.97;3.63;;;;;;;11.30;73.11;95182.56;5052282;28;20250;-86
2022/05/01 00:21:15;;;;;;;4.87;3.53;;;;;;;11.41;72.51;95189.03;5052268;28;20254;-86
2022/05/01 00:23:41;;;;;;;4.20;2.93;;;;;;;11.16;72.29;95148.53;5052129;28;20202;-86
2022/05/01 00:26:07;;;;;;;6.07;3.30;;;;;;;11.53;72.37;95211.06;5052259;28;20198;-86
2022/05/01 00:28:35;;;;;;;6.17;3.63;;;;;;;11.52;72.62;95212.09;5052216;28;20682;-85
2022/05/01 00:31:04;;;;;;;4.70;3.03;;;;;;;11.42;73.02;95206.44;5034251;28;20175;-86
2022/05/01 00:36:26;;;;;;;4.20;3.13;;;;;;;11.31;73.42;95193.91;5050441;28;20282;-85
2022/05/01 00:39:02;;;;;;;5.37;3.40;;;;;;;11.40;73.67;95208.50;5051786;28;20170;-86
2022/05/01 00:41:30;;;;;;;6.23;3.53;;;;;;;11.33;73.26;95187.41;5034050;28;20198;-86
2022/05/01 00:44:09;;;;;;;6.87;3.70;;;;;;;11.40;73.52;95192.69;5033804;28;20179;-86
2022/05/01 00:46:42;;;;;;;5.00;3.63;;;;;;;11.47;73.71;95206.63;5050269;28;20177;-85
2022/05/01 00:49:10;;;;;;;8.27;4.03;;;;;;;11.52;73.68;95203.38;5051636;28;20166;-86
2022/05/01 00:51:41;;;;;;;6.57;4.13;;;;;;;11.62;73.71;95195.84;5033744;28;20186;-84
2022/05/01 00:54:07;;;;;;;7.13;4.63;;;;;;;11.71;73.38;95202.50;5033720;28;20250;-85
2022/05/01 00:56:38;;;;;;;8.17;4.40;;;;;;;11.62;73.59;95209.81;5052167;28;20194;-85
2022/05/01 00:59:04;;;;;;;4.73;3.77;;;;;;;11.49;74.67;95215.16;5033487;28;20251;-86
2022/05/01 01:01:31;;;;;;;5.53;4.23;;;;;;;11.37;74.80;95197.53;5051230;28;20266;-84
2022/05/01 01:03:56;;;;;;;6.83;4.37;;;;;;;11.32;75.33;95208.72;5050339;28;20182;-85
2022/05/01 01:06:22;;;;;;;9.17;5.07;;;;;;;11.21;75.25;95172.44;5051854;28;20171;-86
2022/05/01 01:08:47;;;;;;;7.80;5.07;;;;;;;11.27;75.50;95193.50;5051848;28;20676;-84
2022/05/01 01:11:13;;;;;;;8.80;4.87;;;;;;;11.25;76.03;95205.25;5052078;28;20182;-84
2022/05/01 01:13:39;;;;;;;8.87;5.53;;;;;;;10.61;76.89;95131.41;5051848;28;20190;-86
2022/05/01 01:16:11;;;;;;;6.77;5.07;;;;;;;10.98;76.87;95180.81;5034082;28;20332;-85
2022/05/01 01:18:39;;;;;;;36.57;5.23;;;;;;;11.11;77.36;95198.41;5033856;28;20174;-85
2022/05/01 01:21:09;;;;;;;289.90;45.47;;;;;;;10.83;77.82;95178.38;5051476;28;20167;-85
2022/05/01 01:23:36;;;;;;;9.13;5.23;;;;;;;10.87;78.90;95202.50;5051629;28;20174;-85
2022/05/01 01:26:06;;;;;;;8.90;4.77;;;;;;;10.54;79.10;95168.28;5051685;28;20185;-85
2022/05/01 01:28:34;;;;;;;9.47;5.47;;;;;;;10.40;79.25;95146.41;5052130;28;20336;-85
2022/05/01 01:33:51;;;;;;;8.13;5.47;;;;;;;10.81;80.13;95196.19;5051435;28;20234;-86
2022/05/01 01:36:20;;;;;;;9.40;5.93;;;;;;;10.44;80.09;95136.28;5033936;28;20281;-85
2022/05/01 01:38:45;;;;;;;9.77;5.97;;;;;;;10.82;80.25;95189.91;5051790;28;20259;-85
2022/05/01 01:41:13;;;;;;;9.60;5.87;;;;;;;10.81;80.33;95193.56;5051692;28;20229;-84
2022/05/01 01:43:42;;;;;;;9.53;6.00;;;;;;;10.68;80.38;95164.63;5051549;28;20179;-86
2022/05/01 01:46:08;;;;;;;8.77;6.13;;;;;;;10.73;79.90;95156.09;5051284;28;20166;-85
2022/05/01 01:48:33;;;;;;;9.83;5.77;;;;;;;10.49;80.17;95133.84;5033801;28;20175;-85
2022/05/01 01:51:02;;;;;;;9.27;6.37;;;;;;;10.68;80.85;95196.22;5033597;28;20217;-86
2022/05/01 01:53:29;;;;;;;15.03;6.60;;;;;;;10.73;80.97;95190.31;5050388;28;20167;-86
2022/05/01 01:55:56;;;;;;;12.83;7.10;;;;;;;10.51;81.34;95169.47;5051470;28;20728;-86
2022/05/01 01:58:21;;;;;;;10.83;6.93;;;;;;;10.63;81.63;95188.13;5051259;28;20175;-85
2022/05/01 02:00:47;;;;;;;12.67;7.27;;;;;;;10.56;82.10;95179.41;5051518;28;20198;-86
2022/05/01 02:03:13;;;;;;;9.20;6.60;;;;;;;10.46;81.80;95165.84;5051777;28;20633;-84
2022/05/01 02:05:38;;;;;;;9.03;6.30;;;;;;;10.75;81.28;95186.47;5033761;28;20174;-84
2022/05/01 02:08:07;;;;;;;9.97;6.50;;;;;;;10.70;81.15;95170.50;5051501;28;20179;-86
2022/05/01 02:10:33;;;;;;;9.90;6.20;;;;;;;10.50;81.80;95156.53;5051389;28;20183;-85
2022/05/01 02:13:00;;;;;;;9.00;6.13;;;;;;;10.59;82.15;95176.38;5051600;28;20164;-85
2022/05/01 02:15:30;;;;;;;11.83;7.33;;;;;;;10.53;82.19;95156.94;5051462;28;20811;-86
2022/05/01 02:17:56;;;;;;;12.13;7.13;;;;;;;10.44;82.46;95163.41;5036962;28;20565;-85
2022/05/01 02:20:21;;;;;;;11.97;7.47;;;;;;;10.11;84.32;95157.28;5039669;28;20163;-85
2022/05/01 02:22:47;;;;;;;12.50;7.17;;;;;;;10.21;85.02;95168.22;5036014;28;20642;-85
2022/05/01 02:25:13;;;;;;;13.50;7.67;;;;;;;10.19;85.49;95178.97;5050626;28;20672;-85
2022/05/01 02:27:38;;;;;;;9.23;6.40;;;;;;;9.95;85.57;95153.19;5050866;28;20722;-84
2022/05/01 02:30:08;;;;;;;11.67;7.80;;;;;;;10.08;85.94;95179.53;5051143;28;20178;-84
2022/05/01 02:32:38;;;;;;;13.20;8.93;;;;;;;10.21;86.24;95199.81;5051273;28;20665;-86
2022/05/01 02:35:08;;;;;;;12.17;7.90;;;;;;;10.07;85.94;95161.31;5047523;28;20237;-84
2022/05/01 02:37:34;;;;;;;16.23;9.93;;;;;;;10.16;86.03;95168.00;5051055;28;20195;-85
2022/05/01 02:40:00;;;;;;;16.00;8.23;;;;;;;10.02;85.38;95121.66;5054741;28;20179;-85
2022/05/01 02:42:26;;;;;;;12.73;7.87;;;;;;;10.24;84.89;95149.44;5054678;28;20177;-86
2022/05/01 02:44:51;;;;;;;13.17;8.60;;;;;;;10.46;84.55;95177.19;5054741;28;20178;-85
2022/05/01 02:47:17;;;;;;;11.17;7.50;;;;;;;10.34;84.12;95134.06;5036555;28;20171;-85
2022/05/01 02:49:43;;;;;;;11.53;7.70;;;;;;;10.31;84.14;95133.63;5054421;28;21763;-85
2022/05/01 02:52:09;;;;;;;16.10;9.40;;;;;;;10.52;84.10;95162.41;5054637;28;20175;-85
2022/05/01 02:54:35;;;;;;;18.90;10.50;;;;;;;10.51;84.43;95171.31;5053851;28;20782;-84
2022/05/01 02:57:01;;;;;;;25.03;10.90;;;;;;;10.31;84.45;95147.59;5054046;28;20673;-85
2022/05/01 02:59:27;;;;;;;16.40;9.87;;;;;;;10.50;84.56;95177.56;5036849;28;20190;-84
2022/05/01 03:01:54;;;;;;;13.33;8.03;;;;;;;10.36;84.83;95183.84;5054396;28;20685;-84
2022/05/01 03:04:20;;;;;;;16.40;8.17;;;;;;;10.25;85.22;95180.00;5036274;28;20545;-84
2022/05/01 03:06:45;;;;;;;13.87;8.50;;;;;;;10.23;85.81;95175.94;5055621;28;20197;-85
2022/05/01 03:09:11;;;;;;;19.03;8.83;;;;;;;10.23;85.92;95178.56;5059502;28;20186;-84
2022/05/01 03:11:36;;;;;;;14.03;9.40;;;;;;;10.00;86.54;95155.25;5058517;28;20227;-85
2022/05/01 03:14:03;;;;;;;19.50;11.00;;;;;;;9.98;86.19;95142.28;5054511;28;20761;-84
2022/05/01 03:16:29;;;;;;;13.67;9.60;;;;;;;10.23;86.22;95181.19;5054021;28;20195;-85
2022/05/01 03:24:23;;;;;;;14.27;9.13;;;;;;;10.36;84.51;95158.34;5052983;28;20177;-84
2022/05/01 03:26:49;;;;;;;16.47;8.70;;;;;;;10.49;84.14;95174.13;5035824;28;20262;-85
2022/05/01 03:29:15;;;;;;;13.53;8.40;;;;;;;10.41;84.22;95165.63;5053783;28;20641;-85
2022/05/01 03:31:41;;;;;;;12.03;7.73;;;;;;;10.24;84.40;95152.06;5053745;28;20168;-85
2022/05/01 03:34:07;;;;;;;12.00;7.97;;;;;;;10.58;84.02;95195.81;5054124;28;20217;-85
2022/05/01 03:36:33;;;;;;;14.63;8.10;;;;;;;10.42;84.68;95198.84;5054082;28;20383;-85
2022/05/01 03:38:59;;;;;;;12.80;8.57;;;;;;;10.38;84.94;95195.00;5054210;28;20653;-85
2022/05/01 03:41:26;;;;;;;12.50;8.70;;;;;;;10.43;84.20;95184.66;5054100;28;20175;-85
2022/05/01 03:43:52;;;;;;;13.57;8.33;;;;;;;10.28;84.35;95163.00;5053687;28;20306;-85
2022/05/01 03:46:20;;;;;;;14.33;8.60;;;;;;;10.60;84.18;95217.47;5035488;28;20674;-85
2022/05/01 03:48:46;;;;;;;19.57;9.57;;;;;;;10.56;84.15;95232.03;5035059;28;20325;-85
2022/05/01 03:51:12;;;;;;;11.30;8.93;;;;;;;10.34;84.40;95194.56;5052200;28;20163;-85
2022/05/01 03:53:38;;;;;;;13.70;9.00;;;;;;;10.44;84.92;95218.69;5053502;28;20182;-85
2022/05/01 03:56:05;;;;;;;12.60;8.90;;;;;;;10.27;85.29;95175.34;5053353;28;20693;-85
2022/05/01 03:58:30;;;;;;;15.27;8.10;;;;;;;10.44;84.69;95183.66;5053128;28;20178;-85
2022/05/01 04:00:57;;;;;;;14.07;9.03;;;;;;;10.80;84.57;95226.22;5051588;28;20175;-85
2022/05/01 04:03:23;;;;;;;13.63;8.67;;;;;;;10.94;83.75;95227.00;5051280;28;20183;-85
2022/05/01 04:05:49;;;;;;;10.47;7.87;;;;;;;10.98;82.80;95206.34;5051879;28;20241;-85
2022/05/01 04:08:14;;;;;;;13.13;8.93;;;;;;;11.21;82.13;95227.78;5052246;28;20221;-85
2022/05/01 04:10:44;;;;;;;12.93;7.07;;;;;;;11.20;80.31;95240.16;5052284;28;20210;-85
2022/05/01 04:13:11;;;;;;;12.43;7.90;;;;;;;11.04;80.39;95213.41;5052147;28;20175;-84
2022/05/01 04:15:37;;;;;;;13.70;7.97;;;;;;;11.19;79.56;95198.19;5052332;28;20195;-85
2022/05/01 04:18:08;;;;;;;10.03;7.13;;;;;;;11.29;78.59;95204.66;5052319;28;20198;-86
2022/05/01 04:20:35;;;;;;;16.13;8.40;;;;;;;11.69;78.10;95246.72;5052002;28;20175;-85
2022/05/01 04:23:03;;;;;;;13.30;7.70;;;;;;;11.90;77.47;95229.84;5052544;28;20182;-86
2022/05/01 04:25:30;;;;;;;12.90;7.03;;;;;;;12.24;75.76;95247.13;5034424;28;20175;-85
2022/05/01 04:28:04;;;;;;;12.03;7.90;;;;;;;12.19;76.12;95247.78;5052336;28;20186;-85
2022/05/01 04:30:33;;;;;;;10.90;7.70;;;;;;;12.01;75.86;95202.81;5049458;28;20554;-85
2022/05/01 04:33:07;;;;;;;15.90;7.97;;;;;;;12.46;74.35;95243.94;5052140;28;20189;-85
2022/05/01 04:35:38;;;;;;;10.13;7.33;;;;;;;12.88;73.96;95246.94;5033623;28;20226;-87
2022/05/01 04:38:12;;;;;;;10.87;7.50;;;;;;;13.36;72.32;95254.28;5050818;28;20239;-84
2022/05/01 04:40:40;;;;;;;10.97;7.27;;;;;;;13.66;70.54;95236.69;5033763;28;20171;-83
2022/05/01 04:43:08;;;;;;;10.93;7.40;;;;;;;13.97;69.57;95241.00;5051426;28;20186;-84
2022/05/01 04:45:35;;;;;;;15.50;7.33;;;;;;;14.24;68.33;95241.47;5051644;28;20167;-83
2022/05/01 04:48:01;;;;;;;12.23;7.50;;;;;;;14.31;67.48;95229.78;5051462;28;20564;-84
2022/05/01 04:50:28;;;;;;;19.63;7.33;;;;;;;14.08;67.61;95211.16;5051452;28;20233;-83
2022/05/01 04:52:54;;;;;;;1999.90;999.90;;;;;;;14.18;68.18;95226.50;5033752;28;20171;-83
2022/05/01 04:55:20;;;;;;;505.03;129.03;;;;;;;14.45;67.61;95235.72;5051568;28;20254;-83
2022/05/01 04:57:45;;;;;;;296.37;45.53;;;;;;;14.60;66.35;95230.03;5051714;28;20620;-83
2022/05/01 05:00:13;;;;;;;86.30;20.73;;;;;;;14.71;66.32;95243.28;5033260;28;20168;-84
2022/05/01 05:02:41;;;;;;;88.43;18.63;;;;;;;14.92;65.08;95222.59;5051633;28;20175;-83
2022/05/01 05:05:09;;;;;;;59.33;10.97;;;;;;;15.25;63.96;95230.00;5051401;28;20167;-84
2022/05/01 05:07:36;;;;;;;10.20;6.07;;;;;;;15.53;63.69;95229.31;5051870;28;20566;-84
2022/05/01 05:10:03;;;;;;;9.20;6.13;;;;;;;15.56;62.49;95242.16;5034819;28;20191;-84
2022/05/01 05:12:29;;;;;;;9.80;6.43;;;;;;;15.76;61.79;95248.69;5051801;28;20213;-84
2022/05/01 05:14:58;;;;;;;8.97;6.27;;;;;;;15.73;60.89;95230.59;5051565;28;20262;-84
2022/05/01 05:17:24;;;;;;;10.70;6.77;;;;;;;15.22;62.21;95218.00;5048872;28;20256;-83
2022/05/01 05:19:50;;;;;;;8.80;6.17;;;;;;;15.26;62.93;95261.59;5051492;28;20604;-83
2022/05/01 05:22:16;;;;;;;8.13;6.53;;;;;;;15.16;63.53;95250.75;5051887;28;20171;-80
2022/05/01 05:24:41;;;;;;;10.03;6.50;;;;;;;15.47;62.86;95252.28;5051588;28;20669;-83
2022/05/01 05:27:07;;;;;;;11.43;7.17;;;;;;;15.90;61.31;95222.72;5051190;28;20672;-84
2022/05/01 05:29:33;;;;;;;7.63;6.20;;;;;;;17.05;57.90;95265.00;5050782;28;20555;-83
2022/05/01 05:31:59;;;;;;;9.50;7.27;;;;;;;18.16;55.85;95254.41;5033583;28;20543;-83
2022/05/01 05:34:25;;;;;;;11.00;6.45;;;;;;;19.30;52.68;95265.72;5052091;28;20241;-83
2022/05/01 05:36:51;;;;;;;11.10;6.78;;;;;;;19.47;50.66;95262.91;5052046;28;20261;-83
2022/05/01 05:39:17;;;;;;;9.40;6.07;;;;;;;19.65;50.06;95251.84;5056867;28;20175;-83
2022/05/01 05:41:42;;;;;;;8.10;5.88;;;;;;;20.52;49.25;95259.25;5056274;28;20943;-83
2022/05/01 05:44:08;;;;;;;7.85;5.32;;;;;;;20.89;46.95;95237.69;5054194;28;20183;-83
2022/05/01 05:46:34;;;;;;;6.65;5.38;;;;;;;19.44;49.73;95218.03;5051610;28;20186;-83
2022/05/01 05:48:59;;;;;;;6.95;5.82;;;;;;;18.66;51.71;95235.53;5048281;28;20187;-82
2022/05/01 05:51:25;;;;;;;7.18;5.85;;;;;;;18.65;52.29;95232.06;5051518;28;20616;-83
2022/05/01 05:53:51;;;;;;;8.65;6.00;;;;;;;18.66;52.18;95248.88;5051108;28;20178;-82
2022/05/01 05:56:17;;;;;;;6.60;5.55;;;;;;;17.93;54.40;95250.91;5050796;28;20199;-82
2022/05/01 05:58:43;;;;;;;13.18;5.85;;;;;;;17.92;54.66;95253.81;5033394;28;20194;-82
2022/05/01 06:01:09;;;;;;;6.18;5.00;;;;;;;18.71;51.80;95235.56;5051490;28;20633;-82
2022/05/01 06:03:36;;;;;;;6.30;5.40;;;;;;;19.29;50.76;95248.09;5051489;28;20163;-83
2022/05/01 06:06:02;;;;;;;6.63;5.43;;;;;;;19.78;48.99;95255.94;5051053;28;20177;-81
2022/05/01 06:08:28;;;;;;;17.90;6.63;;;;;;;19.45;50.37;95255.19;5050813;28;20262;-83
2022/05/01 06:10:53;;;;;;;10.73;5.40;;;;;;;19.61;49.61;95261.47;5050768;28;20266;-82
2022/05/01 06:13:19;;;;;;;7.43;5.25;;;;;;;19.10;50.24;95278.91;5052970;28;20178;-81
2022/05/01 06:15:44;;;;;;;8.98;5.22;;;;;;;18.33;52.54;95249.81;5054687;28;20205;-82
2022/05/01 06:18:10;;;;;;;5.50;4.95;;;;;;;18.67;54.05;95258.47;5054628;28;20179;-82
2022/05/01 06:20:36;;;;;;;7.03;4.78;;;;;;;18.33;51.71;95255.94;5054822;28;20247;-81
2022/05/01 06:23:02;;;;;;;7.80;5.60;;;;;;;17.98;53.26;95256.31;5054693;28;20221;-81
2022/05/01 06:25:28;;;;;;;6.35;5.45;;;;;;;17.99;53.51;95260.56;5054534;28;21057;-81
2022/05/01 06:27:54;;;;;;;7.90;4.85;;;;;;;17.63;53.88;95253.97;5054480;28;20633;-82
2022/05/01 06:30:19;;;;;;;7.10;5.07;;;;;;;17.33;55.34;95240.97;5051644;28;20171;-82
2022/05/01 06:32:45;;;;;;;7.32;4.68;;;;;;;16.55;56.94;95238.31;5056224;28;20205;-81
2022/05/01 06:35:12;;;;;;;6.67;5.13;;;;;;;16.51;58.42;95261.09;5055131;28;20223;-81
2022/05/01 06:37:38;;;;;;;8.83;5.40;;;;;;;16.71;58.12;95258.00;5052573;28;20175;-80
2022/05/01 06:40:04;;;;;;;7.97;5.80;;;;;;;16.69;58.40;95238.84;5053754;28;20191;-82
2022/05/01 06:42:31;;;;;;;7.23;5.47;;;;;;;17.21;56.28;95263.41;5053803;28;20190;-81
2022/05/01 06:44:57;;;;;;;6.00;5.18;;;;;;;17.71;55.28;95263.41;5054309;28;20187;-81
2022/05/01 06:47:22;;;;;;;5.85;5.05;;;;;;;17.77;54.31;95257.09;5054073;28;20731;-80
2022/05/01 06:49:48;;;;;;;9.05;5.28;;;;;;;17.61;54.56;95248.06;5054031;28;20197;-81
2022/05/01 06:52:23;;;;;;;9.38;5.30;;;;;;;17.63;55.07;95251.31;5053942;28;20198;-81
2022/05/01 06:54:50;;;;;;;6.53;4.78;;;;;;;17.54;55.24;95257.25;5053765;28;20621;-81
2022/05/01 06:57:15;;;;;;;7.53;5.15;;;;;;;17.73;54.40;95247.97;5053798;28;20187;-81
2022/05/01 06:59:41;;;;;;;8.98;5.13;;;;;;;17.63;54.87;95251.31;5053840;28;20195;-82
2022/05/01 07:02:06;;;;;;;6.75;5.25;;;;;;;17.88;54.96;95247.38;5053284;28;20633;-85
2022/05/01 07:04:33;;;;;;;7.10;5.20;;;;;;;17.63;54.39;95253.16;5053585;28;20178;-84
2022/05/01 07:06:58;;;;;;;7.13;5.25;;;;;;;17.69;54.90;95217.56;5053888;28;20167;-82
2022/05/01 07:09:24;;;;;;;6.20;5.60;;;;;;;18.17;54.18;95219.50;5053414;28;20187;-83
2022/05/01 07:11:49;;;;;;;8.20;5.28;;;;;;;18.49;52.12;95206.28;5053211;28;20254;-83
2022/05/01 07:14:15;;;;;;;6.32;5.25;;;;;;;18.35;51.58;95237.81;5035358;28;20669;-82
2022/05/01 07:16:40;;;;;;;6.40;4.47;;;;;;;18.12;51.75;95181.31;5053453;28;20198;-82
2022/05/01 07:19:06;;;;;;;6.18;4.72;;;;;;;18.37;52.25;95209.06;5053419;28;20186;-82
2022/05/01 07:21:32;;;;;;;5.32;4.70;;;;;;;19.04;50.52;95230.00;5053307;28;20179;-82
2022/05/01 07:23:58;;;;;;;9.00;4.47;;;;;;;18.92;49.96;95226.72;5053181;28;20630;-84
2022/05/01 07:26:24;;;;;;;6.25;5.03;;;;;;;19.27;49.67;95255.56;5035319;28;20178;-82
2022/05/01 07:28:50;;;;;;;5.45;4.03;;;;;;;19.43;49.39;95246.63;5053043;28;20171;-82
2022/05/01 07:31:16;;;;;;;7.60;5.03;;;;;;;19.29;50.07;95252.63;5054061;28;20178;-83
2022/05/01 07:33:41;;;;;;;7.32;4.60;;;;;;;19.13;48.68;95220.47;5035293;28;20253;-83
2022/05/01 07:36:07;;;;;;;6.50;4.65;;;;;;;19.20;49.42;95247.75;5035163;28;20202;-83
2022/05/01 07:38:32;;;;;;;6.22;5.25;;;;;;;18.98;51.05;95247.03;5035225;28;20186;-81
2022/05/01 07:40:58;;;;;;;5.03;4.32;;;;;;;18.96;50.88;95238.47;5052555;28;20554;-82
2022/05/01 07:43:23;;;;;;;4.95;4.20;;;;;;;18.93;49.43;95239.00;5050514;28;20225;-79
2022/05/01 07:45:49;;;;;;;5.53;4.45;;;;;;;18.36;50.28;95177.31;5050127;28;20179;-81
2022/05/01 07:48:14;;;;;;;7.75;3.95;;;;;;;18.16;48.00;95225.09;5051187;28;20195;-81
2022/05/01 07:50:40;;;;;;;8.27;4.95;;;;;;;17.79;51.41;95251.53;5048190;28;20186;-79
2022/05/01 07:53:05;;;;;;;4.65;4.07;;;;;;;17.48;52.78;95237.72;5048841;28;22236;-79
2022/05/01 07:55:31;;;;;;;7.55;4.65;;;;;;;17.28;53.06;95178.91;5051084;28;20206;-82
2022/05/01 07:57:56;;;;;;;11.38;4.70;;;;;;;17.35;53.81;95212.28;5030064;28;20186;-80
2022/05/01 08:00:22;;;;;;;6.03;4.18;;;;;;;17.31;51.25;95244.94;5051940;28;20199;-78
2022/05/01 08:05:34;;;;;;;5.90;4.10;;;;;;;17.12;52.57;95238.25;5047197;28;20609;-79
2022/05/01 08:08:00;;;;;;;5.47;4.15;;;;;;;17.56;51.96;95239.97;5051409;28;20650;-82
2022/05/01 08:10:26;;;;;;;9.50;5.43;;;;;;;18.33;50.73;95239.97;5032580;28;20175;-81
2022/05/01 08:12:51;;;;;;;7.43;4.20;;;;;;;18.48;48.83;95242.78;5050518;28;20661;-80
2022/05/01 08:15:18;;;;;;;6.03;4.47;;;;;;;18.70;49.45;95220.63;5046315;28;20237;-80
2022/05/01 08:17:47;;;;;;;5.38;3.88;;;;;;;19.00;47.67;95223.59;5030501;28;20185;-81
2022/05/01 08:23:05;;;;;;;10.07;3.63;;;;;;;18.98;47.65;95240.91;5050148;28;20197;-80
2022/05/01 08:25:32;;;;;;;6.80;4.18;;;;;;;19.14;47.55;95235.44;5051206;28;20915;-79
2022/05/01 08:27:57;;;;;;;4.78;3.75;;;;;;;18.71;46.58;95238.25;5046923;28;20190;-82
2022/05/01 08:30:23;;;;;;;3.38;3.03;;;;;;;18.55;47.00;95239.91;5034911;28;20198;-80
2022/05/01 08:32:48;;;;;;;5.95;3.85;;;;;;;18.63;45.83;95244.84;5051108;28;20182;-80
2022/05/01 08:35:14;;;;;;;3.20;2.90;;;;;;;18.14;45.58;95225.34;5051046;28;20238;-80
2022/05/01 08:37:40;;;;;;;4.60;3.15;;;;;;;18.44;46.33;95231.00;5052656;28;20179;-81
2022/05/01 08:40:07;;;;;;;5.57;3.50;;;;;;;18.38;46.78;95199.22;5052389;28;20202;-84
2022/05/01 08:42:35;;;;;;;5.70;4.25;;;;;;;18.30;47.49;95219.13;5051980;28;20183;-82
2022/05/01 08:45:01;;;;;;;5.28;3.60;;;;;;;18.23;49.31;95223.84;5052018;28;20178;-82
2022/05/01 08:47:35;;;;;;;8.95;3.88;;;;;;;18.25;49.81;95207.63;5051577;28;20170;-83
2022/05/01 08:50:02;;;;;;;4.32;3.47;;;;;;;18.06;46.83;95218.59;5050871;28;20174;-82
2022/05/01 08:52:29;;;;;;;3.97;3.03;;;;;;;17.91;46.21;95209.56;5052153;28;20171;-83
2022/05/01 08:54:58;;;;;;;3.60;3.17;;;;;;;17.64;45.99;95166.91;5033587;28;20245;-83
2022/05/01 08:57:23;;;;;;;4.05;3.30;;;;;;;17.96;48.18;95202.47;5051992;28;20700;-84
2022/05/01 08:59:55;;;;;;;3.70;3.33;;;;;;;18.54;47.75;95200.16;5051836;28;20171;-80
2022/05/01 09:02:21;;;;;;;4.30;3.30;;;;;;;18.83;43.20;95212.22;5050564;28;20200;-79
2022/05/01 09:04:47;;;;;;;5.90;2.92;;;;;;;19.06;43.05;95203.06;5049428;28;20207;-79
2022/05/01 09:07:12;;;;;;;6.43;2.55;;;;;;;18.59;39.85;95192.25;5005311;28;20639;-78
2022/05/01 09:09:38;;;;;;;2.92;2.50;;;;;;;18.82;41.92;95195.41;5018488;28;20184;-79
2022/05/01 09:14:55;;;;;;;3.13;2.47;;;;;;;18.92;41.70;95189.34;4993830;28;20267;-80
2022/05/01 09:17:23;;;;;;;3.25;2.40;;;;;;;18.98;39.99;95193.66;5013082;28;20204;-78
2022/05/01 09:19:51;;;;;;;2.72;2.53;;;;;;;18.87;41.04;95183.97;5016297;28;20697;-77
2022/05/01 09:22:18;;;;;;;3.63;2.30;;;;;;;18.90;40.57;95151.44;5016172;28;20183;-80
2022/05/01 09:24:43;;;;;;;2.67;2.10;;;;;;;19.12;39.87;95178.03;5015784;28;20721;-78
2022/05/01 09:27:36;;;;;;;2.70;2.10;;;;;;;19.28;39.39;95179.75;5015202;28;20180;-78
2022/05/01 09:30:16;;;;;;;5.50;1.90;;;;;;;19.03;37.93;95175.00;5012421;28;20198;-78
2022/05/01 09:32:43;;;;;;;5.53;2.55;;;;;;;18.82;37.71;95173.25;5009787;28;20207;-78
2022/05/01 09:35:17;;;;;;;7.35;3.15;;;;;;;18.37;38.87;95150.41;5029545;28;20227;-78
2022/05/01 09:37:44;;;;;;;3.40;1.90;;;;;;;18.22;39.40;95174.25;5029936;28;20215;-78
2022/05/01 09:40:10;;;;;;;2.65;2.00;;;;;;;18.07;38.84;95166.09;5029095;28;20171;-79
2022/05/01 09:42:36;;;;;;;3.00;1.92;;;;;;;17.99;41.47;95134.53;5036102;28;20302;-82
2022/05/01 09:45:04;;;;;;;4.28;1.98;;;;;;;18.34;40.25;95139.44;5039852;28;20261;-80
2022/05/01 09:47:44;;;;;;;2.92;2.20;;;;;;;18.30;40.27;95144.50;5039108;28;20630;-79
2022/05/01 09:50:12;;;;;;;2.75;2.15;;;;;;;18.14;40.32;95140.06;5040056;28;20175;-79
2022/05/01 09:53:03;;;;;;;2.35;1.95;;;;;;;18.46;38.11;95156.09;5044078;28;20191;-79
2022/05/01 09:55:30;;;;;;;2.80;2.60;;;;;;;18.39;38.46;95111.00;5037926;28;20171;-80
2022/05/01 09:58:07;;;;;;;3.33;1.70;;;;;;;18.87;37.23;95143.94;5038310;28;20222;-79
2022/05/01 10:00:39;;;;;;;1.70;1.60;;;;;;;19.08;36.06;95139.56;5032779;28;20221;-80
2022/05/01 10:03:24;;;;;;;1.90;1.63;;;;;;;18.97;35.84;95138.69;5036051;28;20176;-79
2022/05/01 10:05:51;;;;;;;1.73;1.50;;;;;;;18.80;37.19;95138.84;5038683;28;20167;-79
2022/05/01 10:08:18;;;;;;;3.17;2.40;;;;;;;18.92;36.73;95137.84;5037315;28;20207;-79
2022/05/01 10:10:49;;;;;;;4.93;1.70;;;;;;;18.57;37.22;95133.03;5035017;28;20171;-79
2022/05/01 10:13:16;;;;;;;1.83;1.73;;;;;;;18.77;35.73;95130.53;5035918;28;20290;-80
2022/05/01 10:15:41;;;;;;;2.55;2.00;;;;;;;18.79;35.69;95117.75;5040857;28;20252;-79
2022/05/01 10:18:08;;;;;;;1.55;1.45;;;;;;;18.94;35.89;95123.19;5035728;28;20176;-80
2022/05/01 10:20:37;;;;;;;1.92;1.70;;;;;;;19.06;37.27;95107.78;5034709;28;20183;-79
2022/05/01 10:23:03;;;;;;;3.03;1.58;;;;;;;19.21;35.29;95112.41;5038014;28;20186;-80
2022/05/01 10:25:38;;;;;;;2.00;1.70;;;;;;;19.06;35.36;95107.78;5041085;28;20736;-79
2022/05/01 10:28:40;;;;;;;2.05;1.80;;;;;;;18.64;37.01;95113.09;5016053;28;20685;-79
2022/05/01 10:34:04;;;;;;;2.45;2.13;;;;;;;18.74;36.35;95099.03;5044236;28;20224;-80
2022/05/01 10:37:02;;;;;;;4.50;2.45;;;;;;;19.03;36.40;95083.47;5040279;28;20752;-79
2022/05/01 10:39:36;;;;;;;2.20;1.88;;;;;;;19.07;35.20;95104.06;5033212;28;20187;-79
2022/05/01 10:42:02;;;;;;;1.70;1.60;;;;;;;18.54;36.19;95072.16;5045552;28;20179;-80
2022/05/01 10:44:36;;;;;;;2.28;1.85;;;;;;;18.81;36.40;95092.44;5043915;28;20183;-80
2022/05/01 10:47:12;;;;;;;2.22;1.80;;;;;;;19.10;36.55;95081.41;5044744;28;20167;-79
2022/05/01 10:49:45;;;;;;;2.20;1.80;;;;;;;19.34;35.88;95068.44;5044370;28;20174;-78
2022/05/01 10:52:19;;;;;;;2.33;2.00;;;;;;;19.39;37.04;95063.13;5046615;28;20163;-78
2022/05/01 10:55:00;;;;;;;2.42;1.92;;;;;;;19.29;36.43;95061.19;5040801;28;20233;-78
2022/05/01 10:57:26;;;;;;;4.72;2.65;;;;;;;19.40;36.54;95070.88;5044126;28;21039;-79
2022/05/01 11:00:05;;;;;;;3.40;1.98;;;;;;;18.93;36.50;95078.91;5039591;28;20167;-78
2022/05/01 11:02:45;;;;;;;2.95;1.88;;;;;;;18.44;37.43;95086.22;5043987;28;20630;-79
2022/05/01 11:05:28;;;;;;;2.85;1.83;;;;;;;18.34;38.38;95054.94;5043528;28;20271;-78
2022/05/01 11:07:55;;;;;;;2.33;1.88;;;;;;;18.70;40.62;95040.06;5026501;28;20214;-79
2022/05/01 11:10:25;;;;;;;5.07;1.73;;;;;;;19.15;37.25;95065.41;5043315;28;20168;-79
2022/05/01 11:12:53;;;;;;;2.20;1.88;;;;;;;19.13;36.43;95035.50;5036224;28;20628;-79
2022/05/01 11:15:27;;;;;;;2.35;1.77;;;;;;;19.43;36.58;95056.22;5036172;28;20180;-79
2022/05/01 11:17:53;;;;;;;2.10;1.90;;;;;;;19.13;35.73;95033.63;5033918;28;20188;-78
2022/05/01 11:20:19;;;;;;;2.33;2.08;;;;;;;19.03;36.42;95052.25;5034210;28;20211;-79
2022/05/01 11:22:47;;;;;;;2.60;2.00;;;;;;;19.22;36.24;95058.78;5035546;28;20670;-79
2022/05/01 11:25:32;;;;;;;2.50;1.73;;;;;;;19.36;36.56;95045.78;5035461;28;20194;-79
2022/05/01 11:27:58;;;;;;;3.70;2.42;;;;;;;19.58;37.17;95050.94;5026473;28;20176;-79
2022/05/01 11:30:27;;;;;;;2.63;1.80;;;;;;;19.40;35.26;95048.72;5030737;28;20172;-79
2022/05/01 11:33:12;;;;;;;5.50;2.03;;;;;;;19.01;36.24;95043.72;5029701;28;20182;-79
2022/05/01 11:35:56;;;;;;;3.22;1.77;;;;;;;18.96;36.07;95037.53;5034431;28;20235;-79
2022/05/01 11:38:42;;;;;;;3.15;1.50;;;;;;;19.01;36.95;95045.59;5025151;28;20180;-79
2022/05/01 11:41:10;;;;;;;2.63;1.67;;;;;;;18.82;36.44;95011.34;5034926;28;20180;-81
2022/05/01 11:43:36;;;;;;;2.53;1.98;;;;;;;18.93;36.68;95024.75;5046000;28;20259;-81
2022/05/01 11:46:17;;;;;;;3.15;1.83;;;;;;;18.95;35.76;95027.94;5045583;28;20170;-81
2022/05/01 11:48:42;;;;;;;3.60;1.42;;;;;;;18.69;35.86;95026.97;5040627;28;20220;-81
2022/05/01 11:51:10;;;;;;;2.95;1.70;;;;;;;18.70;37.05;95026.72;5031131;28;20175;-81
2022/05/01 11:53:39;;;;;;;4.00;1.77;;;;;;;18.67;37.05;95016.59;5028056;28;20168;-80
2022/05/01 12:04:37;;;;;;;4.60;2.00;;;;;;;18.44;39.38;95006.25;5038716;28;20289;-81
2022/05/01 12:07:08;;;;;;;1.70;1.60;;;;;;;18.53;38.91;95004.72;5039068;28;20575;-82